sensor_id;sensor_type;location;lat;lon;timestamp;P1;durP1;ratioP1;P2;durP2;ratioP2
14251;SDS011;7210;51.502;10.722;2023-02-28T00:01:07;2.77;;;2.17;;
14251;SDS011;7210;51.502;10.722;2023-02-28T00:03:35;3.00;;;2.17;;
14251;SDS011;7210;51.502;10.722;2023-02-28T00:06:04;3.13;;;2.23;;
14251;SDS011;7210;51.502;10.722;2023-02-28T00:08:34;3.20;;;2.20;;
14251;SDS011;7210;51.502;10.722;2023-02-28T00:11:01;2.53;;;2.10;;
14251;SDS011;7210;51.502;10.722;2023-02-28T00:13:29;3.47;;;2.50;;
14251;SDS011;7210;51.502;10.722;2023-02-28T00:16:00;2.30;;;2.10;;
14251;SDS011;7210;51.502;10.722;2023-02-28T00:18:29;3.37;;;2.00;;
14251;SDS011;7210;51.502;10.722;2023-02-28T00:20:57;2.90;;;2.17;;
14251;SDS011;7210;51.502;10.722;2023-02-28T00:23:26;2.53;;;2.07;;
14251;SDS011;7210;51.502;10.722;2023-02-28T00:25:54;2.67;;;2.17;;
14251;SDS011;7210;51.502;10.722;2023-02-28T00:28:21;3.97;;;2.10;;
14251;SDS011;7210;51.502;10.722;2023-02-28T00:30:48;3.90;;;2.37;;
14251;SDS011;7210;51.502;10.722;2023-02-28T00:33:16;4.20;;;2.10;;
14251;SDS011;7210;51.502;10.722;2023-02-28T00:35:43;2.50;;;1.80;;
14251;SDS011;7210;51.502;10.722;2023-02-28T00:38:11;3.63;;;2.17;;
14251;SDS011;7210;51.502;10.722;2023-02-28T00:40:40;4.33;;;2.37;;
14251;SDS011;7210;51.502;10.722;2023-02-28T00:43:09;2.80;;;2.07;;
14251;SDS011;7210;51.502;10.722;2023-02-28T00:45:37;4.63;;;3.90;;
14251;SDS011;7210;51.502;10.722;2023-02-28T00:48:04;2.90;;;2.13;;
14251;SDS011;7210;51.502;10.722;2023-02-28T00:50:37;3.23;;;2.47;;
14251;SDS011;7210;51.502;10.722;2023-02-28T00:53:04;3.73;;;2.40;;
14251;SDS011;7210;51.502;10.722;2023-02-28T00:55:31;4.70;;;2.30;;
14251;SDS011;7210;51.502;10.722;2023-02-28T00:58:02;3.43;;;2.23;;
14251;SDS011;7210;51.502;10.722;2023-02-28T01:00:30;4.47;;;2.40;;
14251;SDS011;7210;51.502;10.722;2023-02-28T01:02:57;2.43;;;2.10;;
14251;SDS011;7210;51.502;10.722;2023-02-28T01:05:24;3.73;;;2.30;;
14251;SDS011;7210;51.502;10.722;2023-02-28T01:07:51;2.60;;;2.13;;
14251;SDS011;7210;51.502;10.722;2023-02-28T01:10:18;2.53;;;2.17;;
14251;SDS011;7210;51.502;10.722;2023-02-28T01:12:46;3.27;;;2.20;;
14251;SDS011;7210;51.502;10.722;2023-02-28T01:15:16;3.10;;;2.30;;
14251;SDS011;7210;51.502;10.722;2023-02-28T01:17:44;2.23;;;2.03;;
14251;SDS011;7210;51.502;10.722;2023-02-28T01:20:11;2.50;;;2.30;;
14251;SDS011;7210;51.502;10.722;2023-02-28T01:22:39;3.03;;;2.27;;
14251;SDS011;7210;51.502;10.722;2023-02-28T01:25:07;4.23;;;2.60;;
14251;SDS011;7210;51.502;10.722;2023-02-28T01:27:34;3.70;;;2.53;;
14251;SDS011;7210;51.502;10.722;2023-02-28T01:30:02;3.50;;;2.67;;
14251;SDS011;7210;51.502;10.722;2023-02-28T01:32:31;3.10;;;2.50;;
14251;SDS011;7210;51.502;10.722;2023-02-28T01:34:58;4.40;;;2.67;;
14251;SDS011;7210;51.502;10.722;2023-02-28T01:37:25;2.83;;;2.60;;
14251;SDS011;7210;51.502;10.722;2023-02-28T01:39:53;6.37;;;3.53;;
14251;SDS011;7210;51.502;10.722;2023-02-28T01:42:20;4.80;;;3.33;;
14251;SDS011;7210;51.502;10.722;2023-02-28T01:44:54;3.47;;;2.77;;
14251;SDS011;7210;51.502;10.722;2023-02-28T01:47:32;3.57;;;2.83;;
14251;SDS011;7210;51.502;10.722;2023-02-28T01:50:07;5.13;;;3.00;;
14251;SDS011;7210;51.502;10.722;2023-02-28T01:52:41;5.03;;;2.73;;
14251;SDS011;7210;51.502;10.722;2023-02-28T01:55:10;4.30;;;2.67;;
14251;SDS011;7210;51.502;10.722;2023-02-28T01:57:41;3.40;;;2.70;;
14251;SDS011;7210;51.502;10.722;2023-02-28T02:00:15;4.40;;;2.90;;
14251;SDS011;7210;51.502;10.722;2023-02-28T02:02:48;6.00;;;3.00;;
14251;SDS011;7210;51.502;10.722;2023-02-28T02:05:20;4.70;;;2.97;;
14251;SDS011;7210;51.502;10.722;2023-02-28T02:07:51;3.40;;;2.57;;
14251;SDS011;7210;51.502;10.722;2023-02-28T02:10:24;3.53;;;2.87;;
14251;SDS011;7210;51.502;10.722;2023-02-28T02:15:59;3.30;;;2.70;;
14251;SDS011;7210;51.502;10.722;2023-02-28T02:18:48;3.17;;;2.60;;
14251;SDS011;7210;51.502;10.722;2023-02-28T02:25:02;3.00;;;2.70;;
14251;SDS011;7210;51.502;10.722;2023-02-28T02:28:05;4.57;;;2.73;;
14251;SDS011;7210;51.502;10.722;2023-02-28T02:37:09;4.90;;;3.10;;
14251;SDS011;7210;51.502;10.722;2023-02-28T02:39:49;4.47;;;2.93;;
14251;SDS011;7210;51.502;10.722;2023-02-28T02:42:25;3.97;;;3.00;;
14251;SDS011;7210;51.502;10.722;2023-02-28T02:45:03;3.63;;;2.83;;
14251;SDS011;7210;51.502;10.722;2023-02-28T02:47:36;5.50;;;3.50;;
14251;SDS011;7210;51.502;10.722;2023-02-28T02:50:08;4.47;;;2.93;;
14251;SDS011;7210;51.502;10.722;2023-02-28T02:52:43;5.87;;;3.00;;
14251;SDS011;7210;51.502;10.722;2023-02-28T02:55:17;4.87;;;3.53;;
14251;SDS011;7210;51.502;10.722;2023-02-28T02:57:48;3.57;;;3.20;;
14251;SDS011;7210;51.502;10.722;2023-02-28T03:00:22;3.07;;;2.77;;
14251;SDS011;7210;51.502;10.722;2023-02-28T03:02:56;3.53;;;3.23;;
14251;SDS011;7210;51.502;10.722;2023-02-28T03:05:28;4.47;;;3.13;;
14251;SDS011;7210;51.502;10.722;2023-02-28T03:08:07;3.50;;;2.93;;
14251;SDS011;7210;51.502;10.722;2023-02-28T03:10:36;5.23;;;3.30;;
14251;SDS011;7210;51.502;10.722;2023-02-28T03:16:29;2.63;;;2.43;;
14251;SDS011;7210;51.502;10.722;2023-02-28T03:19:19;3.37;;;2.67;;
14251;SDS011;7210;51.502;10.722;2023-02-28T03:22:24;4.30;;;3.33;;
14251;SDS011;7210;51.502;10.722;2023-02-28T03:25:16;3.70;;;3.13;;
14251;SDS011;7210;51.502;10.722;2023-02-28T03:28:00;5.63;;;3.30;;
14251;SDS011;7210;51.502;10.722;2023-02-28T03:30:36;7.10;;;2.80;;
14251;SDS011;7210;51.502;10.722;2023-02-28T03:33:17;3.67;;;2.90;;
14251;SDS011;7210;51.502;10.722;2023-02-28T03:35:50;5.07;;;3.40;;
14251;SDS011;7210;51.502;10.722;2023-02-28T03:38:27;4.37;;;2.73;;
14251;SDS011;7210;51.502;10.722;2023-02-28T03:41:01;4.13;;;3.00;;
14251;SDS011;7210;51.502;10.722;2023-02-28T03:43:38;4.97;;;3.03;;
14251;SDS011;7210;51.502;10.722;2023-02-28T03:46:14;4.83;;;2.77;;
14251;SDS011;7210;51.502;10.722;2023-02-28T03:48:51;3.83;;;2.77;;
14251;SDS011;7210;51.502;10.722;2023-02-28T03:51:24;3.67;;;2.60;;
14251;SDS011;7210;51.502;10.722;2023-02-28T03:53:57;3.03;;;2.53;;
14251;SDS011;7210;51.502;10.722;2023-02-28T03:56:34;5.47;;;2.50;;
14251;SDS011;7210;51.502;10.722;2023-02-28T03:59:10;4.30;;;2.43;;
14251;SDS011;7210;51.502;10.722;2023-02-28T04:01:44;2.50;;;2.07;;
14251;SDS011;7210;51.502;10.722;2023-02-28T04:04:15;3.03;;;1.63;;
14251;SDS011;7210;51.502;10.722;2023-02-28T04:06:44;5.63;;;1.63;;
14251;SDS011;7210;51.502;10.722;2023-02-28T04:09:13;1.50;;;1.37;;
14251;SDS011;7210;51.502;10.722;2023-02-28T04:11:41;2.50;;;2.10;;
14251;SDS011;7210;51.502;10.722;2023-02-28T04:14:14;2.43;;;1.70;;
14251;SDS011;7210;51.502;10.722;2023-02-28T04:16:41;1.77;;;1.50;;
14251;SDS011;7210;51.502;10.722;2023-02-28T04:19:10;2.03;;;1.80;;
14251;SDS011;7210;51.502;10.722;2023-02-28T04:21:40;1.73;;;1.53;;
14251;SDS011;7210;51.502;10.722;2023-02-28T04:24:10;2.80;;;1.80;;
14251;SDS011;7210;51.502;10.722;2023-02-28T04:26:41;2.23;;;1.63;;
14251;SDS011;7210;51.502;10.722;2023-02-28T04:29:12;1.87;;;1.60;;
14251;SDS011;7210;51.502;10.722;2023-02-28T04:31:46;1.77;;;1.50;;
14251;SDS011;7210;51.502;10.722;2023-02-28T04:34:13;2.40;;;1.60;;
14251;SDS011;7210;51.502;10.722;2023-02-28T04:36:40;3.63;;;2.00;;
14251;SDS011;7210;51.502;10.722;2023-02-28T04:39:07;2.17;;;1.57;;
14251;SDS011;7210;51.502;10.722;2023-02-28T04:41:37;1.73;;;1.50;;
14251;SDS011;7210;51.502;10.722;2023-02-28T04:44:04;1.50;;;1.40;;
14251;SDS011;7210;51.502;10.722;2023-02-28T04:46:31;2.13;;;1.53;;
14251;SDS011;7210;51.502;10.722;2023-02-28T04:48:58;2.23;;;1.67;;
14251;SDS011;7210;51.502;10.722;2023-02-28T04:51:26;1.63;;;1.53;;
14251;SDS011;7210;51.502;10.722;2023-02-28T04:53:53;3.73;;;1.70;;
14251;SDS011;7210;51.502;10.722;2023-02-28T04:56:20;3.00;;;1.93;;
14251;SDS011;7210;51.502;10.722;2023-02-28T04:58:50;5.47;;;2.00;;
14251;SDS011;7210;51.502;10.722;2023-02-28T05:01:20;3.87;;;2.07;;
14251;SDS011;7210;51.502;10.722;2023-02-28T05:03:50;5.07;;;1.90;;
14251;SDS011;7210;51.502;10.722;2023-02-28T05:06:20;2.47;;;1.50;;
14251;SDS011;7210;51.502;10.722;2023-02-28T05:08:49;3.30;;;1.70;;
14251;SDS011;7210;51.502;10.722;2023-02-28T05:11:18;2.30;;;1.87;;
14251;SDS011;7210;51.502;10.722;2023-02-28T05:13:47;3.23;;;1.97;;
14251;SDS011;7210;51.502;10.722;2023-02-28T05:16:17;2.17;;;1.40;;
14251;SDS011;7210;51.502;10.722;2023-02-28T05:18:45;2.40;;;1.80;;
14251;SDS011;7210;51.502;10.722;2023-02-28T05:21:21;2.63;;;1.70;;
14251;SDS011;7210;51.502;10.722;2023-02-28T05:23:55;3.10;;;1.80;;
14251;SDS011;7210;51.502;10.722;2023-02-28T05:26:25;2.00;;;1.80;;
14251;SDS011;7210;51.502;10.722;2023-02-28T05:28:53;2.23;;;1.57;;
14251;SDS011;7210;51.502;10.722;2023-02-28T05:31:22;2.83;;;2.03;;
14251;SDS011;7210;51.502;10.722;2023-02-28T05:33:50;2.40;;;1.70;;
14251;SDS011;7210;51.502;10.722;2023-02-28T05:36:21;3.13;;;2.00;;
14251;SDS011;7210;51.502;10.722;2023-02-28T05:38:49;2.30;;;1.80;;
14251;SDS011;7210;51.502;10.722;2023-02-28T05:41:18;2.40;;;2.00;;
14251;SDS011;7210;51.502;10.722;2023-02-28T05:43:47;4.30;;;1.90;;
14251;SDS011;7210;51.502;10.722;2023-02-28T05:46:15;2.20;;;2.00;;
14251;SDS011;7210;51.502;10.722;2023-02-28T05:48:45;3.10;;;2.00;;
14251;SDS011;7210;51.502;10.722;2023-02-28T05:51:14;2.40;;;1.73;;
14251;SDS011;7210;51.502;10.722;2023-02-28T05:53:41;6.77;;;2.53;;
14251;SDS011;7210;51.502;10.722;2023-02-28T05:56:09;4.77;;;1.87;;
14251;SDS011;7210;51.502;10.722;2023-02-28T05:58:36;3.13;;;2.10;;
14251;SDS011;7210;51.502;10.722;2023-02-28T06:01:19;3.07;;;2.10;;
14251;SDS011;7210;51.502;10.722;2023-02-28T06:03:51;2.70;;;1.87;;
14251;SDS011;7210;51.502;10.722;2023-02-28T06:06:18;3.00;;;1.90;;
14251;SDS011;7210;51.502;10.722;2023-02-28T06:08:48;3.00;;;2.07;;
14251;SDS011;7210;51.502;10.722;2023-02-28T06:11:17;2.53;;;2.10;;
14251;SDS011;7210;51.502;10.722;2023-02-28T06:13:45;3.97;;;1.90;;
14251;SDS011;7210;51.502;10.722;2023-02-28T06:16:12;5.50;;;3.23;;
14251;SDS011;7210;51.502;10.722;2023-02-28T06:18:39;6.90;;;3.50;;
14251;SDS011;7210;51.502;10.722;2023-02-28T06:21:11;5.27;;;3.43;;
14251;SDS011;7210;51.502;10.722;2023-02-28T06:23:38;2.80;;;2.20;;
14251;SDS011;7210;51.502;10.722;2023-02-28T06:26:06;3.33;;;2.00;;
14251;SDS011;7210;51.502;10.722;2023-02-28T06:28:33;3.73;;;2.77;;
14251;SDS011;7210;51.502;10.722;2023-02-28T06:31:06;2.40;;;1.80;;
14251;SDS011;7210;51.502;10.722;2023-02-28T06:33:34;3.87;;;2.40;;
14251;SDS011;7210;51.502;10.722;2023-02-28T06:36:02;3.53;;;2.10;;
14251;SDS011;7210;51.502;10.722;2023-02-28T06:38:32;2.17;;;1.90;;
14251;SDS011;7210;51.502;10.722;2023-02-28T06:41:00;2.37;;;2.17;;
14251;SDS011;7210;51.502;10.722;2023-02-28T06:43:29;4.93;;;2.37;;
14251;SDS011;7210;51.502;10.722;2023-02-28T06:45:59;3.37;;;2.17;;
14251;SDS011;7210;51.502;10.722;2023-02-28T06:48:28;3.03;;;2.57;;
14251;SDS011;7210;51.502;10.722;2023-02-28T06:51:00;5.70;;;2.30;;
14251;SDS011;7210;51.502;10.722;2023-02-28T06:53:29;2.90;;;2.40;;
14251;SDS011;7210;51.502;10.722;2023-02-28T06:55:58;2.80;;;2.50;;
14251;SDS011;7210;51.502;10.722;2023-02-28T06:58:26;3.80;;;2.40;;
14251;SDS011;7210;51.502;10.722;2023-02-28T07:00:55;4.83;;;2.50;;
14251;SDS011;7210;51.502;10.722;2023-02-28T07:03:22;3.93;;;2.27;;
14251;SDS011;7210;51.502;10.722;2023-02-28T07:05:49;2.87;;;2.40;;
14251;SDS011;7210;51.502;10.722;2023-02-28T07:08:17;2.77;;;2.47;;
14251;SDS011;7210;51.502;10.722;2023-02-28T07:10:45;3.23;;;2.47;;
14251;SDS011;7210;51.502;10.722;2023-02-28T07:13:14;3.00;;;2.30;;
14251;SDS011;7210;51.502;10.722;2023-02-28T07:15:41;4.00;;;2.60;;
14251;SDS011;7210;51.502;10.722;2023-02-28T07:18:09;3.17;;;2.57;;
14251;SDS011;7210;51.502;10.722;2023-02-28T07:20:36;3.90;;;2.37;;
14251;SDS011;7210;51.502;10.722;2023-02-28T07:23:03;3.90;;;2.57;;
14251;SDS011;7210;51.502;10.722;2023-02-28T07:25:30;2.60;;;2.20;;
14251;SDS011;7210;51.502;10.722;2023-02-28T07:27:57;2.73;;;2.37;;
14251;SDS011;7210;51.502;10.722;2023-02-28T07:30:27;3.40;;;2.70;;
14251;SDS011;7210;51.502;10.722;2023-02-28T07:32:54;4.93;;;3.30;;
14251;SDS011;7210;51.502;10.722;2023-02-28T07:35:22;2.90;;;2.50;;
14251;SDS011;7210;51.502;10.722;2023-02-28T07:37:49;2.83;;;2.53;;
14251;SDS011;7210;51.502;10.722;2023-02-28T07:40:17;3.80;;;2.70;;
14251;SDS011;7210;51.502;10.722;2023-02-28T07:42:44;3.90;;;3.13;;
14251;SDS011;7210;51.502;10.722;2023-02-28T07:45:15;4.50;;;3.07;;
14251;SDS011;7210;51.502;10.722;2023-02-28T07:47:44;4.33;;;3.00;;
14251;SDS011;7210;51.502;10.722;2023-02-28T07:50:12;3.80;;;3.00;;
14251;SDS011;7210;51.502;10.722;2023-02-28T07:52:41;4.33;;;3.40;;
14251;SDS011;7210;51.502;10.722;2023-02-28T07:55:09;6.03;;;3.23;;
14251;SDS011;7210;51.502;10.722;2023-02-28T07:57:38;4.00;;;3.37;;
14251;SDS011;7210;51.502;10.722;2023-02-28T08:00:07;3.93;;;3.50;;
14251;SDS011;7210;51.502;10.722;2023-02-28T08:02:39;3.57;;;3.17;;
14251;SDS011;7210;51.502;10.722;2023-02-28T08:05:08;3.70;;;3.40;;
14251;SDS011;7210;51.502;10.722;2023-02-28T08:07:35;5.57;;;4.00;;
14251;SDS011;7210;51.502;10.722;2023-02-28T08:10:02;5.13;;;4.10;;
14251;SDS011;7210;51.502;10.722;2023-02-28T08:12:31;4.73;;;3.53;;
14251;SDS011;7210;51.502;10.722;2023-02-28T08:14:58;4.70;;;4.00;;
14251;SDS011;7210;51.502;10.722;2023-02-28T08:17:26;4.67;;;3.97;;
14251;SDS011;7210;51.502;10.722;2023-02-28T08:19:53;5.17;;;3.90;;
14251;SDS011;7210;51.502;10.722;2023-02-28T08:22:21;4.23;;;3.67;;
14251;SDS011;7210;51.502;10.722;2023-02-28T08:24:49;4.03;;;3.33;;
14251;SDS011;7210;51.502;10.722;2023-02-28T08:27:16;4.87;;;3.70;;
14251;SDS011;7210;51.502;10.722;2023-02-28T08:29:43;4.07;;;3.60;;
14251;SDS011;7210;51.502;10.722;2023-02-28T08:32:10;4.20;;;3.57;;
14251;SDS011;7210;51.502;10.722;2023-02-28T08:34:38;4.67;;;3.60;;
14251;SDS011;7210;51.502;10.722;2023-02-28T08:37:06;3.67;;;3.37;;
14251;SDS011;7210;51.502;10.722;2023-02-28T08:39:35;5.47;;;3.40;;
14251;SDS011;7210;51.502;10.722;2023-02-28T08:42:02;4.13;;;3.67;;
14251;SDS011;7210;51.502;10.722;2023-02-28T08:44:31;5.37;;;4.20;;
14251;SDS011;7210;51.502;10.722;2023-02-28T08:46:58;4.67;;;4.00;;
14251;SDS011;7210;51.502;10.722;2023-02-28T08:49:25;4.53;;;3.63;;
14251;SDS011;7210;51.502;10.722;2023-02-28T08:51:53;5.03;;;3.50;;
14251;SDS011;7210;51.502;10.722;2023-02-28T08:54:22;5.97;;;3.80;;
14251;SDS011;7210;51.502;10.722;2023-02-28T08:56:50;8.93;;;4.10;;
14251;SDS011;7210;51.502;10.722;2023-02-28T08:59:18;5.57;;;3.50;;
14251;SDS011;7210;51.502;10.722;2023-02-28T09:01:46;4.83;;;3.77;;
14251;SDS011;7210;51.502;10.722;2023-02-28T09:04:15;4.40;;;3.53;;
14251;SDS011;7210;51.502;10.722;2023-02-28T09:06:44;5.73;;;4.10;;
14251;SDS011;7210;51.502;10.722;2023-02-28T09:09:14;4.30;;;3.90;;
14251;SDS011;7210;51.502;10.722;2023-02-28T09:11:43;5.87;;;4.10;;
14251;SDS011;7210;51.502;10.722;2023-02-28T09:14:12;4.60;;;3.73;;
14251;SDS011;7210;51.502;10.722;2023-02-28T09:16:40;5.20;;;4.03;;
14251;SDS011;7210;51.502;10.722;2023-02-28T09:19:10;5.00;;;4.00;;
14251;SDS011;7210;51.502;10.722;2023-02-28T09:21:39;3.97;;;3.63;;
14251;SDS011;7210;51.502;10.722;2023-02-28T09:24:07;5.00;;;4.17;;
14251;SDS011;7210;51.502;10.722;2023-02-28T09:26:36;5.73;;;4.03;;
14251;SDS011;7210;51.502;10.722;2023-02-28T09:29:04;5.30;;;4.03;;
14251;SDS011;7210;51.502;10.722;2023-02-28T09:31:33;5.70;;;3.90;;
14251;SDS011;7210;51.502;10.722;2023-02-28T09:34:00;4.63;;;3.63;;
14251;SDS011;7210;51.502;10.722;2023-02-28T09:36:27;6.07;;;3.77;;
14251;SDS011;7210;51.502;10.722;2023-02-28T09:38:57;6.60;;;4.00;;
14251;SDS011;7210;51.502;10.722;2023-02-28T09:41:27;4.20;;;3.60;;
14251;SDS011;7210;51.502;10.722;2023-02-28T09:44:16;5.20;;;4.30;;
14251;SDS011;7210;51.502;10.722;2023-02-28T09:46:55;5.13;;;4.07;;
14251;SDS011;7210;51.502;10.722;2023-02-28T09:49:30;5.57;;;4.30;;
14251;SDS011;7210;51.502;10.722;2023-02-28T09:52:07;4.93;;;4.53;;
14251;SDS011;7210;51.502;10.722;2023-02-28T09:54:39;5.57;;;4.13;;
14251;SDS011;7210;51.502;10.722;2023-02-28T09:57:08;5.27;;;4.20;;
14251;SDS011;7210;51.502;10.722;2023-02-28T09:59:49;5.73;;;3.97;;
14251;SDS011;7210;51.502;10.722;2023-02-28T10:02:51;5.83;;;4.23;;
14251;SDS011;7210;51.502;10.722;2023-02-28T10:05:52;5.33;;;4.47;;
14251;SDS011;7210;51.502;10.722;2023-02-28T10:08:30;5.33;;;4.40;;
14251;SDS011;7210;51.502;10.722;2023-02-28T10:11:11;4.50;;;3.60;;
14251;SDS011;7210;51.502;10.722;2023-02-28T10:13:46;5.63;;;3.80;;
14251;SDS011;7210;51.502;10.722;2023-02-28T10:16:25;5.80;;;4.37;;
14251;SDS011;7210;51.502;10.722;2023-02-28T10:19:02;4.67;;;4.27;;
14251;SDS011;7210;51.502;10.722;2023-02-28T10:22:09;6.17;;;3.60;;
14251;SDS011;7210;51.502;10.722;2023-02-28T10:24:43;5.17;;;4.10;;
14251;SDS011;7210;51.502;10.722;2023-02-28T10:27:14;4.67;;;4.27;;
14251;SDS011;7210;51.502;10.722;2023-02-28T10:29:44;7.63;;;4.00;;
14251;SDS011;7210;51.502;10.722;2023-02-28T10:32:15;4.33;;;3.70;;
14251;SDS011;7210;51.502;10.722;2023-02-28T10:34:47;5.00;;;4.37;;
14251;SDS011;7210;51.502;10.722;2023-02-28T10:37:21;3.97;;;3.57;;
14251;SDS011;7210;51.502;10.722;2023-02-28T10:39:48;5.77;;;4.17;;
14251;SDS011;7210;51.502;10.722;2023-02-28T10:42:18;4.13;;;3.77;;
14251;SDS011;7210;51.502;10.722;2023-02-28T10:45:03;4.40;;;4.00;;
14251;SDS011;7210;51.502;10.722;2023-02-28T10:47:41;5.60;;;4.40;;
14251;SDS011;7210;51.502;10.722;2023-02-28T10:50:29;4.17;;;3.73;;
14251;SDS011;7210;51.502;10.722;2023-02-28T10:53:10;4.87;;;4.20;;
14251;SDS011;7210;51.502;10.722;2023-02-28T10:56:04;5.60;;;4.00;;
14251;SDS011;7210;51.502;10.722;2023-02-28T10:58:49;3.50;;;3.20;;
14251;SDS011;7210;51.502;10.722;2023-02-28T11:01:23;3.73;;;3.40;;
14251;SDS011;7210;51.502;10.722;2023-02-28T11:04:02;5.63;;;3.27;;
14251;SDS011;7210;51.502;10.722;2023-02-28T11:06:43;3.90;;;3.07;;
14251;SDS011;7210;51.502;10.722;2023-02-28T11:09:16;4.77;;;3.33;;
14251;SDS011;7210;51.502;10.722;2023-02-28T11:11:51;5.03;;;3.33;;
14251;SDS011;7210;51.502;10.722;2023-02-28T11:14:19;4.03;;;3.37;;
14251;SDS011;7210;51.502;10.722;2023-02-28T11:16:50;4.00;;;3.30;;
14251;SDS011;7210;51.502;10.722;2023-02-28T11:19:20;3.50;;;3.13;;
14251;SDS011;7210;51.502;10.722;2023-02-28T11:21:55;4.53;;;3.57;;
14251;SDS011;7210;51.502;10.722;2023-02-28T11:24:28;4.80;;;4.07;;
14251;SDS011;7210;51.502;10.722;2023-02-28T11:26:59;3.90;;;3.50;;
14251;SDS011;7210;51.502;10.722;2023-02-28T11:29:27;4.40;;;3.80;;
14251;SDS011;7210;51.502;10.722;2023-02-28T11:32:00;4.83;;;4.07;;
14251;SDS011;7210;51.502;10.722;2023-02-28T11:34:33;5.77;;;4.80;;
14251;SDS011;7210;51.502;10.722;2023-02-28T11:37:05;5.83;;;4.27;;
14251;SDS011;7210;51.502;10.722;2023-02-28T11:39:40;4.73;;;4.20;;
14251;SDS011;7210;51.502;10.722;2023-02-28T11:42:15;4.93;;;3.90;;
14251;SDS011;7210;51.502;10.722;2023-02-28T11:45:08;4.73;;;3.83;;
14251;SDS011;7210;51.502;10.722;2023-02-28T11:47:48;4.37;;;3.97;;
14251;SDS011;7210;51.502;10.722;2023-02-28T11:50:38;4.00;;;3.37;;
14251;SDS011;7210;51.502;10.722;2023-02-28T11:53:21;4.10;;;3.70;;
14251;SDS011;7210;51.502;10.722;2023-02-28T11:56:14;5.80;;;3.20;;
14251;SDS011;7210;51.502;10.722;2023-02-28T11:58:55;4.30;;;3.90;;
14251;SDS011;7210;51.502;10.722;2023-02-28T12:02:04;5.40;;;4.23;;
14251;SDS011;7210;51.502;10.722;2023-02-28T12:04:49;5.60;;;4.60;;
14251;SDS011;7210;51.502;10.722;2023-02-28T12:07:45;4.90;;;4.20;;
14251;SDS011;7210;51.502;10.722;2023-02-28T12:10:26;5.93;;;4.07;;
14251;SDS011;7210;51.502;10.722;2023-02-28T12:13:01;5.40;;;4.10;;
14251;SDS011;7210;51.502;10.722;2023-02-28T12:15:47;4.70;;;3.77;;
14251;SDS011;7210;51.502;10.722;2023-02-28T12:18:42;4.57;;;4.17;;
14251;SDS011;7210;51.502;10.722;2023-02-28T12:21:29;4.57;;;4.13;;
14251;SDS011;7210;51.502;10.722;2023-02-28T12:24:22;6.03;;;4.50;;
14251;SDS011;7210;51.502;10.722;2023-02-28T12:27:18;5.20;;;4.53;;
14251;SDS011;7210;51.502;10.722;2023-02-28T12:29:53;6.27;;;5.47;;
14251;SDS011;7210;51.502;10.722;2023-02-28T12:32:29;5.30;;;4.80;;
14251;SDS011;7210;51.502;10.722;2023-02-28T12:35:02;6.50;;;4.53;;
14251;SDS011;7210;51.502;10.722;2023-02-28T12:37:40;6.40;;;4.67;;
14251;SDS011;7210;51.502;10.722;2023-02-28T12:40:14;5.10;;;4.60;;
14251;SDS011;7210;51.502;10.722;2023-02-28T12:42:49;7.93;;;5.20;;
14251;SDS011;7210;51.502;10.722;2023-02-28T12:45:21;5.30;;;4.80;;
14251;SDS011;7210;51.502;10.722;2023-02-28T12:47:56;4.83;;;4.43;;
14251;SDS011;7210;51.502;10.722;2023-02-28T12:50:30;5.00;;;4.60;;
14251;SDS011;7210;51.502;10.722;2023-02-28T12:53:00;5.37;;;4.60;;
14251;SDS011;7210;51.502;10.722;2023-02-28T12:55:33;4.73;;;4.33;;
14251;SDS011;7210;51.502;10.722;2023-02-28T12:58:13;4.90;;;4.40;;
14251;SDS011;7210;51.502;10.722;2023-02-28T13:00:56;5.73;;;4.03;;
14251;SDS011;7210;51.502;10.722;2023-02-28T13:03:44;4.93;;;4.30;;
14251;SDS011;7210;51.502;10.722;2023-02-28T13:06:44;6.03;;;4.50;;
14251;SDS011;7210;51.502;10.722;2023-02-28T13:09:34;5.50;;;4.60;;
14251;SDS011;7210;51.502;10.722;2023-02-28T13:12:01;4.90;;;4.40;;
14251;SDS011;7210;51.502;10.722;2023-02-28T13:14:41;5.67;;;5.07;;
14251;SDS011;7210;51.502;10.722;2023-02-28T13:17:10;6.83;;;5.53;;
14251;SDS011;7210;51.502;10.722;2023-02-28T13:19:45;6.03;;;4.83;;
14251;SDS011;7210;51.502;10.722;2023-02-28T13:22:39;5.90;;;5.23;;
14251;SDS011;7210;51.502;10.722;2023-02-28T13:38:16;5.23;;;4.73;;
14251;SDS011;7210;51.502;10.722;2023-02-28T13:44:13;5.47;;;4.97;;
14251;SDS011;7210;51.502;10.722;2023-02-28T13:52:54;5.87;;;5.00;;
14251;SDS011;7210;51.502;10.722;2023-02-28T13:56:03;5.83;;;5.03;;
14251;SDS011;7210;51.502;10.722;2023-02-28T13:58:48;5.37;;;4.87;;
14251;SDS011;7210;51.502;10.722;2023-02-28T14:01:34;6.03;;;5.30;;
14251;SDS011;7210;51.502;10.722;2023-02-28T14:04:33;5.33;;;4.83;;
14251;SDS011;7210;51.502;10.722;2023-02-28T14:07:28;5.70;;;4.90;;
14251;SDS011;7210;51.502;10.722;2023-02-28T14:10:05;5.87;;;5.03;;
14251;SDS011;7210;51.502;10.722;2023-02-28T14:12:57;6.20;;;5.03;;
14251;SDS011;7210;51.502;10.722;2023-02-28T14:15:50;5.90;;;4.97;;
14251;SDS011;7210;51.502;10.722;2023-02-28T14:18:25;6.90;;;4.60;;
14251;SDS011;7210;51.502;10.722;2023-02-28T14:21:00;6.70;;;4.97;;
14251;SDS011;7210;51.502;10.722;2023-02-28T14:23:49;5.43;;;4.93;;
14251;SDS011;7210;51.502;10.722;2023-02-28T14:26:55;9.90;;;8.00;;
14251;SDS011;7210;51.502;10.722;2023-02-28T14:29:47;6.67;;;5.57;;
14251;SDS011;7210;51.502;10.722;2023-02-28T14:32:58;6.87;;;6.17;;
14251;SDS011;7210;51.502;10.722;2023-02-28T14:35:48;6.00;;;5.40;;
14251;SDS011;7210;51.502;10.722;2023-02-28T14:38:29;6.10;;;5.00;;
14251;SDS011;7210;51.502;10.722;2023-02-28T14:41:03;6.40;;;5.80;;
14251;SDS011;7210;51.502;10.722;2023-02-28T14:43:47;6.27;;;4.87;;
14251;SDS011;7210;51.502;10.722;2023-02-28T14:46:18;6.33;;;5.10;;
14251;SDS011;7210;51.502;10.722;2023-02-28T14:48:46;6.20;;;4.57;;
14251;SDS011;7210;51.502;10.722;2023-02-28T14:51:20;5.73;;;4.60;;
14251;SDS011;7210;51.502;10.722;2023-02-28T14:53:51;5.60;;;4.77;;
14251;SDS011;7210;51.502;10.722;2023-02-28T14:56:26;6.27;;;5.53;;
14251;SDS011;7210;51.502;10.722;2023-02-28T14:59:00;5.87;;;5.37;;
14251;SDS011;7210;51.502;10.722;2023-02-28T15:01:27;5.60;;;5.00;;
14251;SDS011;7210;51.502;10.722;2023-02-28T15:03:58;6.20;;;5.00;;
14251;SDS011;7210;51.502;10.722;2023-02-28T15:06:30;6.70;;;5.23;;
14251;SDS011;7210;51.502;10.722;2023-02-28T15:09:13;5.17;;;4.67;;
14251;SDS011;7210;51.502;10.722;2023-02-28T15:11:45;5.27;;;4.60;;
14251;SDS011;7210;51.502;10.722;2023-02-28T15:14:20;5.87;;;5.10;;
14251;SDS011;7210;51.502;10.722;2023-02-28T15:16:50;6.07;;;5.20;;
14251;SDS011;7210;51.502;10.722;2023-02-28T15:19:23;7.27;;;5.30;;
14251;SDS011;7210;51.502;10.722;2023-02-28T15:21:56;6.47;;;5.30;;
14251;SDS011;7210;51.502;10.722;2023-02-28T15:24:31;5.83;;;4.80;;
14251;SDS011;7210;51.502;10.722;2023-02-28T15:27:06;6.37;;;5.30;;
14251;SDS011;7210;51.502;10.722;2023-02-28T15:29:44;6.13;;;5.30;;
14251;SDS011;7210;51.502;10.722;2023-02-28T15:32:24;6.57;;;5.20;;
14251;SDS011;7210;51.502;10.722;2023-02-28T15:34:56;5.00;;;4.50;;
14251;SDS011;7210;51.502;10.722;2023-02-28T15:37:28;6.17;;;4.60;;
14251;SDS011;7210;51.502;10.722;2023-02-28T15:40:10;5.50;;;4.33;;
14251;SDS011;7210;51.502;10.722;2023-02-28T15:42:42;5.33;;;4.73;;
14251;SDS011;7210;51.502;10.722;2023-02-28T15:45:28;6.80;;;4.63;;
14251;SDS011;7210;51.502;10.722;2023-02-28T15:48:03;5.70;;;4.70;;
14251;SDS011;7210;51.502;10.722;2023-02-28T15:50:31;6.27;;;4.33;;
14251;SDS011;7210;51.502;10.722;2023-02-28T15:53:00;5.70;;;4.63;;
14251;SDS011;7210;51.502;10.722;2023-02-28T15:55:29;8.63;;;6.97;;
14251;SDS011;7210;51.502;10.722;2023-02-28T15:57:57;6.70;;;5.43;;
14251;SDS011;7210;51.502;10.722;2023-02-28T16:00:28;4.90;;;4.37;;
14251;SDS011;7210;51.502;10.722;2023-02-28T16:02:57;6.27;;;4.87;;
14251;SDS011;7210;51.502;10.722;2023-02-28T16:05:25;6.77;;;4.83;;